Time;durP1;ratioP1;P1;durP2;ratioP2;P2;SDS_P1;SDS_P2;PMS_P1;PMS_P2;Temp;Humidity;BMP_temperature;BMP_pressure;BME280_temperature;BME280_humidity;BME280_pressure;Samples;Min_cycle;Max_cycle;Signal;HPM_P1;HPM_P2
2023/09/20 00:00:25;;;;;;;6.78;2.22;;;18.40;83.20;;;;;;6240069;23;20062;-78
2023/09/20 00:03:10;;;;;;;5.70;1.88;;;18.30;83.30;;;;;;6240448;23;20018;-78
2023/09/20 00:05:56;;;;;;;5.53;2.03;;;18.30;83.40;;;;;;6241995;22;20013;-78
2023/09/20 00:08:42;;;;;;;4.07;2.15;;;18.30;83.60;;;;;;6238775;23;20012;-78
2023/09/20 00:11:28;;;;;;;6.65;2.47;;;18.20;83.60;;;;;;6238451;23;20008;-80
2023/09/20 00:14:17;;;;;;;5.32;2.25;;;18.20;83.80;;;;;;6239488;23;20012;-78
2023/09/20 00:17:03;;;;;;;9.30;2.50;;;18.10;83.90;;;;;;6241921;22;20522;-77
2023/09/20 00:19:49;;;;;;;4.97;2.22;;;18.10;84.00;;;;;;6242101;23;20012;-81
2023/09/20 00:22:37;;;;;;;6.15;2.28;;;18.10;84.10;;;;;;6241102;23;20012;-81
2023/09/20 00:25:23;;;;;;;10.52;2.72;;;18.10;84.50;;;;;;6240639;23;20035;-80
2023/09/20 00:28:10;;;;;;;5.88;2.17;;;18.00;84.30;;;;;;6241943;23;20327;-81
2023/09/20 00:30:57;;;;;;;4.95;2.78;;;18.00;84.40;;;;;;6239651;23;20004;-81
2023/09/20 00:33:43;;;;;;;3.80;1.98;;;18.00;84.50;;;;;;6240373;23;20465;-80
2023/09/20 00:36:33;;;;;;;7.30;2.28;;;18.00;84.50;;;;;;6241400;23;20011;-82
2023/09/20 00:39:18;;;;;;;6.05;2.22;;;17.90;84.70;;;;;;6241540;23;20047;-81
2023/09/20 00:42:04;;;;;;;6.13;2.17;;;17.90;84.70;;;;;;6240801;23;20023;-81
2023/09/20 00:44:50;;;;;;;7.10;2.00;;;17.80;84.80;;;;;;6240201;23;20035;-82
2023/09/20 00:47:40;;;;;;;3.88;1.60;;;17.80;85.00;;;;;;6240527;23;20012;-83
2023/09/20 00:50:31;;;;;;;3.45;2.00;;;17.80;85.20;;;;;;6241827;23;20016;-83
2023/09/20 00:53:17;;;;;;;5.50;2.10;;;17.70;85.20;;;;;;6252198;23;20008;-81
2023/09/20 00:56:05;;;;;;;3.83;1.90;;;17.70;85.30;;;;;;6246151;22;20027;-80
2023/09/20 00:58:53;;;;;;;4.18;2.00;;;17.70;85.40;;;;;;6244775;23;20020;-80
2023/09/20 01:01:40;;;;;;;4.97;1.90;;;17.60;85.50;;;;;;6243544;23;20020;-79
2023/09/20 01:04:28;;;;;;;3.80;1.98;;;17.60;85.60;;;;;;6228430;23;20023;-83
2023/09/20 01:07:14;;;;;;;7.18;2.75;;;17.60;85.90;;;;;;6246648;23;20004;-80
2023/09/20 01:10:00;;;;;;;5.38;2.08;;;17.50;85.90;;;;;;6252451;23;20010;-73
2023/09/20 01:12:47;;;;;;;3.75;2.08;;;17.50;86.00;;;;;;6252982;23;20012;-82
2023/09/20 01:15:35;;;;;;;3.70;2.35;;;17.50;86.10;;;;;;6254710;23;20008;-80
2023/09/20 01:18:21;;;;;;;7.47;2.33;;;17.50;86.30;;;;;;6254851;23;20008;-78
2023/09/20 01:21:06;;;;;;;4.15;2.10;;;17.50;86.30;;;;;;6255932;23;20107;-83
2023/09/20 01:23:53;;;;;;;3.80;2.13;;;17.50;86.30;;;;;;6261868;23;20450;-84
2023/09/20 01:26:39;;;;;;;5.07;2.03;;;17.50;86.50;;;;;;6261469;23;20027;-80
2023/09/20 01:29:25;;;;;;;4.30;2.08;;;17.40;86.50;;;;;;6261901;23;20004;-85
2023/09/20 01:32:11;;;;;;;6.00;1.77;;;17.40;86.60;;;;;;6264659;23;20031;-85
2023/09/20 01:34:58;;;;;;;6.55;2.03;;;17.40;86.70;;;;;;6252691;23;20007;-61
2023/09/20 01:37:44;;;;;;;7.80;1.80;;;17.40;87.00;;;;;;6241317;23;20008;-61
2023/09/20 01:40:33;;;;;;;6.65;3.55;;;17.40;87.00;;;;;;6241596;23;20012;-61
2023/09/20 01:43:19;;;;;;;4.20;1.73;;;17.40;87.20;;;;;;6241347;23;20044;-62
2023/09/20 01:46:07;;;;;;;4.13;1.92;;;17.40;87.30;;;;;;6240856;23;20044;-61
2023/09/20 01:48:54;;;;;;;4.15;2.17;;;17.30;87.30;;;;;;6239308;23;20095;-61
2023/09/20 01:51:40;;;;;;;6.03;2.58;;;17.30;87.50;;;;;;6241972;22;20015;-62
2023/09/20 01:54:28;;;;;;;3.97;2.10;;;17.30;87.60;;;;;;6242372;23;20020;-62
2023/09/20 01:57:14;;;;;;;5.53;1.77;;;17.30;87.80;;;;;;6240482;23;20008;-62
2023/09/20 02:00:00;;;;;;;5.45;2.05;;;17.30;87.90;;;;;;6242010;23;20012;-62
2023/09/20 02:02:46;;;;;;;3.88;2.00;;;17.30;87.90;;;;;;6241774;23;20023;-62
2023/09/20 02:05:33;;;;;;;4.72;1.70;;;17.30;88.00;;;;;;6241716;23;20127;-61
2023/09/20 02:08:19;;;;;;;3.67;1.73;;;17.30;88.00;;;;;;6220201;23;20011;-61
2023/09/20 02:11:06;;;;;;;4.45;2.45;;;17.30;88.20;;;;;;6240812;23;20019;-61
2023/09/20 02:13:53;;;;;;;4.03;2.17;;;17.30;88.40;;;;;;6241085;23;20043;-61
2023/09/20 02:16:39;;;;;;;9.05;2.25;;;17.30;88.40;;;;;;6238542;23;20102;-62
2023/09/20 02:19:25;;;;;;;4.55;2.15;;;17.20;88.50;;;;;;6243657;23;20065;-61
2023/09/20 02:22:12;;;;;;;4.10;1.90;;;17.20;88.70;;;;;;6242273;22;20020;-61
2023/09/20 02:24:58;;;;;;;4.88;2.40;;;17.20;88.70;;;;;;6239967;23;20501;-60
2023/09/20 02:27:44;;;;;;;9.10;2.00;;;17.30;88.90;;;;;;6242560;22;20012;-61
2023/09/20 02:30:35;;;;;;;5.55;2.30;;;17.30;89.00;;;;;;6241403;23;20331;-61
2023/09/20 02:33:21;;;;;;;6.00;2.20;;;17.30;89.00;;;;;;6218111;23;20087;-62
2023/09/20 02:36:07;;;;;;;3.50;1.98;;;17.30;89.20;;;;;;6240695;23;20015;-61
2023/09/20 02:38:53;;;;;;;4.65;1.92;;;17.30;89.30;;;;;;6242716;22;20398;-60
2023/09/20 02:41:40;;;;;;;5.15;1.92;;;17.30;89.30;;;;;;6239898;23;20410;-62
2023/09/20 02:44:26;;;;;;;3.40;1.80;;;17.30;89.40;;;;;;6240645;23;20009;-61
2023/09/20 02:47:11;;;;;;;3.85;1.98;;;17.40;89.50;;;;;;6241067;23;20054;-61
2023/09/20 02:49:57;;;;;;;4.53;2.03;;;17.40;89.50;;;;;;6242955;23;20000;-61
2023/09/20 02:52:45;;;;;;;3.03;2.20;;;17.40;89.70;;;;;;6242528;22;20016;-60
2023/09/20 02:55:31;;;;;;;3.63;1.77;;;17.40;89.80;;;;;;6240956;22;20346;-61
2023/09/20 02:58:17;;;;;;;4.85;1.88;;;17.40;89.80;;;;;;6240194;23;20457;-61
2023/09/20 03:01:03;;;;;;;5.07;2.08;;;17.40;89.70;;;;;;6239744;23;20012;-62
2023/09/20 03:03:49;;;;;;;4.68;1.83;;;17.50;89.90;;;;;;6239543;23;20016;-61
2023/09/20 03:06:35;;;;;;;2.88;2.05;;;17.50;90.00;;;;;;6242619;22;20015;-61
2023/09/20 03:09:24;;;;;;;3.53;1.70;;;17.50;90.20;;;;;;6241270;23;20020;-62
2023/09/20 03:12:10;;;;;;;5.03;1.90;;;17.50;90.00;;;;;;6240622;23;20040;-61
2023/09/20 03:14:59;;;;;;;4.45;1.88;;;17.60;90.00;;;;;;6241095;23;20008;-62
2023/09/20 03:17:45;;;;;;;8.30;2.08;;;17.50;90.00;;;;;;6217257;23;20012;-60
2023/09/20 03:20:34;;;;;;;4.05;1.98;;;17.60;90.00;;;;;;6240878;23;20079;-62
2023/09/20 03:23:20;;;;;;;7.72;2.03;;;17.60;90.00;;;;;;6239492;23;20008;-63
2023/09/20 03:26:06;;;;;;;5.68;2.00;;;17.60;90.00;;;;;;6208512;23;20023;-61
2023/09/20 03:28:56;;;;;;;2.72;1.67;;;17.60;90.00;;;;;;6239800;23;20036;-61
2023/09/20 03:31:43;;;;;;;3.30;1.83;;;17.60;90.10;;;;;;6217693;23;20060;-61
2023/09/20 03:34:29;;;;;;;3.45;1.80;;;17.60;90.10;;;;;;6239241;23;20012;-61
2023/09/20 03:37:15;;;;;;;3.45;2.05;;;17.60;90.10;;;;;;6241730;23;20008;-61
2023/09/20 03:40:00;;;;;;;3.30;1.77;;;17.60;90.20;;;;;;6242460;23;20040;-62
2023/09/20 03:42:48;;;;;;;3.80;1.95;;;17.60;90.20;;;;;;6220688;23;20094;-62
2023/09/20 03:45:34;;;;;;;3.10;1.80;;;17.60;90.20;;;;;;6241926;23;20019;-62
2023/09/20 03:48:20;;;;;;;3.38;1.88;;;17.60;90.30;;;;;;6239826;23;20008;-63
2023/09/20 03:51:13;;;;;;;3.88;2.00;;;17.60;90.30;;;;;;6242085;23;20016;-60
2023/09/20 03:53:59;;;;;;;3.38;1.95;;;17.60;90.40;;;;;;6238991;23;20012;-61
2023/09/20 03:56:45;;;;;;;4.25;1.83;;;17.60;90.40;;;;;;6239328;22;20020;-62
2023/09/20 03:59:32;;;;;;;2.85;1.70;;;17.60;90.40;;;;;;6238738;23;20087;-61
2023/09/20 04:02:18;;;;;;;5.82;1.92;;;17.60;90.50;;;;;;6239990;23;20358;-60
2023/09/20 04:05:13;;;;;;;4.95;2.13;;;17.60;90.50;;;;;;6238736;23;20018;-61
2023/09/20 04:08:00;;;;;;;5.18;2.03;;;17.60;90.60;;;;;;6238886;23;20015;-60
2023/09/20 04:10:46;;;;;;;6.15;2.13;;;17.60;90.60;;;;;;6238865;23;20315;-61
2023/09/20 04:13:32;;;;;;;5.07;1.90;;;17.50;90.60;;;;;;6217903;23;20457;-61
2023/09/20 04:16:19;;;;;;;4.60;1.80;;;17.60;90.70;;;;;;6238715;23;20015;-62
2023/09/20 04:19:05;;;;;;;7.88;2.22;;;17.60;90.70;;;;;;6238657;23;20415;-61
2023/09/20 04:21:51;;;;;;;3.15;1.70;;;17.50;90.70;;;;;;6240149;23;20023;-61
2023/09/20 04:24:37;;;;;;;4.60;2.05;;;17.50;90.80;;;;;;6242290;23;20016;-61
2023/09/20 04:27:23;;;;;;;4.07;1.90;;;17.50;90.80;;;;;;6239322;23;20022;-62
2023/09/20 04:30:13;;;;;;;4.75;1.90;;;17.50;90.90;;;;;;6237407;23;20008;-61
2023/09/20 04:32:59;;;;;;;5.90;2.05;;;17.50;91.00;;;;;;6238847;23;20008;-61
2023/09/20 04:35:47;;;;;;;4.70;2.15;;;17.50;91.00;;;;;;6241797;23;20009;-62
2023/09/20 04:38:33;;;;;;;5.15;2.40;;;17.40;91.10;;;;;;6239353;23;20130;-61
2023/09/20 04:41:19;;;;;;;3.55;1.80;;;17.40;91.10;;;;;;6240319;23;20016;-62
2023/09/20 04:44:05;;;;;;;5.57;2.40;;;17.40;91.20;;;;;;6241528;23;20016;-62
2023/09/20 04:46:51;;;;;;;5.78;2.60;;;17.40;91.30;;;;;;6240937;23;20016;-64
2023/09/20 04:49:38;;;;;;;2.88;1.83;;;17.40;91.30;;;;;;6241988;23;20086;-60
2023/09/20 04:52:24;;;;;;;5.10;2.22;;;17.40;91.40;;;;;;6241549;23;20015;-61
2023/09/20 04:55:10;;;;;;;8.93;2.03;;;17.30;91.50;;;;;;6241085;22;20027;-61
2023/09/20 04:57:56;;;;;;;5.15;2.15;;;17.30;91.50;;;;;;6243512;23;20015;-62
2023/09/20 05:00:42;;;;;;;4.65;2.10;;;17.30;91.60;;;;;;6239425;23;20287;-64
2023/09/20 05:03:29;;;;;;;2.72;1.73;;;17.30;91.70;;;;;;6241749;23;20438;-62
2023/09/20 05:06:15;;;;;;;3.13;1.75;;;17.30;91.70;;;;;;6241151;23;20016;-61
2023/09/20 05:09:03;;;;;;;6.50;2.50;;;17.30;91.80;;;;;;6242539;23;20023;-64
2023/09/20 05:11:49;;;;;;;3.30;2.00;;;17.30;91.80;;;;;;6239743;23;20008;-64
2023/09/20 05:14:35;;;;;;;4.25;2.22;;;17.20;91.90;;;;;;6241013;23;20016;-63
2023/09/20 05:17:21;;;;;;;3.78;2.05;;;17.20;92.00;;;;;;6220910;23;20012;-64
2023/09/20 05:20:07;;;;;;;4.63;2.05;;;17.20;92.00;;;;;;6243916;23;20067;-64
2023/09/20 05:22:54;;;;;;;3.78;2.05;;;17.20;92.10;;;;;;6241633;23;20070;-64
2023/09/20 05:25:40;;;;;;;5.43;1.92;;;17.20;92.10;;;;;;6241519;23;20047;-63
2023/09/20 05:28:25;;;;;;;8.95;2.20;;;17.20;92.20;;;;;;6242260;23;20091;-63
2023/09/20 05:31:11;;;;;;;5.03;2.20;;;17.20;92.30;;;;;;6243465;23;20008;-64
2023/09/20 05:33:57;;;;;;;3.22;1.90;;;17.20;92.40;;;;;;6239618;23;20087;-63
2023/09/20 05:36:45;;;;;;;5.90;1.80;;;17.20;92.50;;;;;;6241981;23;20008;-64
2023/09/20 05:39:31;;;;;;;4.32;2.55;;;17.20;92.50;;;;;;6241129;23;20012;-64
2023/09/20 05:42:17;;;;;;;4.15;2.20;;;17.20;92.60;;;;;;6241270;23;20028;-63
2023/09/20 05:45:05;;;;;;;3.30;2.03;;;17.20;92.70;;;;;;6240937;23;20004;-62
2023/09/20 05:47:51;;;;;;;5.45;2.00;;;17.20;92.70;;;;;;6240534;23;20333;-62
2023/09/20 05:50:37;;;;;;;5.13;2.20;;;17.20;92.80;;;;;;6241919;23;20430;-63
2023/09/20 05:53:23;;;;;;;8.35;1.83;;;17.20;92.80;;;;;;6242218;23;20012;-64
2023/09/20 14:39:38;;;;;;;3.75;1.85;;;25.30;79.80;;;;;;6237657;22;20094;-71
2023/09/20 14:42:25;;;;;;;4.40;1.90;;;25.50;79.90;;;;;;6242958;23;20024;-72
2023/09/20 14:45:12;;;;;;;3.45;1.42;;;25.60;79.80;;;;;;6241136;23;20014;-71
2023/09/20 14:48:00;;;;;;;4.15;1.60;;;25.70;79.70;;;;;;6220884;23;20012;-71
2023/09/20 14:50:46;;;;;;;5.50;1.60;;;25.80;79.40;;;;;;6240115;23;20512;-70
2023/09/20 14:53:32;;;;;;;10.07;3.47;;;25.90;79.30;;;;;;6243014;23;20096;-70
2023/09/20 14:56:18;;;;;;;7.75;2.80;;;26.00;79.40;;;;;;6240332;22;20036;-70
2023/09/20 14:59:04;;;;;;;3.38;2.05;;;26.10;79.30;;;;;;6241720;23;20012;-70
2023/09/20 15:01:50;;;;;;;2.70;1.52;;;26.00;79.10;;;;;;6241054;23;20023;-69
2023/09/20 15:04:36;;;;;;;4.57;1.90;;;25.90;79.10;;;;;;6240755;23;20011;-70
2023/09/20 15:07:22;;;;;;;4.50;2.13;;;25.80;79.30;;;;;;6242475;23;20008;-69
2023/09/20 15:10:12;;;;;;;2.00;1.40;;;25.70;79.40;;;;;;6241327;23;20258;-71
2023/09/20 15:12:58;;;;;;;5.50;2.15;;;25.70;79.30;;;;;;6241247;23;20452;-71
2023/09/20 15:15:45;;;;;;;6.75;2.05;;;25.60;79.40;;;;;;6242703;22;20019;-73
2023/09/20 15:18:33;;;;;;;3.92;1.60;;;25.50;79.50;;;;;;6240544;23;20055;-69
2023/09/20 15:21:20;;;;;;;4.22;1.95;;;25.50;79.40;;;;;;6239132;23;20016;-73
2023/09/20 15:24:06;;;;;;;2.05;1.52;;;25.40;79.50;;;;;;6240139;23;20004;-73
2023/09/20 15:26:52;;;;;;;6.55;2.13;;;25.30;79.50;;;;;;6241156;23;20012;-74
2023/09/20 15:29:38;;;;;;;3.55;1.67;;;25.30;79.50;;;;;;6241515;22;20084;-76
2023/09/20 15:32:24;;;;;;;2.03;1.50;;;25.40;79.40;;;;;;6238753;23;20015;-74
2023/09/20 15:35:10;;;;;;;4.13;1.70;;;25.50;79.50;;;;;;6241501;23;20012;-74
2023/09/20 15:37:57;;;;;;;3.67;2.45;;;25.50;79.50;;;;;;6238010;22;20489;-72
2023/09/20 15:40:43;;;;;;;7.30;1.77;;;25.50;79.70;;;;;;6209700;23;20331;-75
2023/09/20 15:43:37;;;;;;;3.53;1.70;;;25.50;79.30;;;;;;6209057;23;20025;-73
2023/09/20 15:46:23;;;;;;;2.92;1.67;;;25.40;79.20;;;;;;6209950;23;20009;-75
2023/09/20 15:49:09;;;;;;;3.00;1.40;;;25.40;79.50;;;;;;6209942;23;20017;-75
2023/09/20 15:51:55;;;;;;;4.28;1.65;;;25.40;79.70;;;;;;6210623;23;20350;-75
2023/09/20 15:54:44;;;;;;;4.65;1.70;;;25.30;79.90;;;;;;6210350;23;20020;-74
2023/09/20 15:57:30;;;;;;;5.97;1.30;;;25.20;80.00;;;;;;6209452;23;20510;-74
2023/09/20 16:00:17;;;;;;;3.10;1.60;;;25.20;80.00;;;;;;6209642;23;20013;-74
2023/09/20 16:03:03;;;;;;;4.65;2.08;;;25.10;80.10;;;;;;6211035;23;20020;-74
2023/09/20 16:05:52;;;;;;;3.42;2.05;;;25.10;80.10;;;;;;6211101;23;20013;-72
2023/09/20 16:08:38;;;;;;;4.07;2.55;;;25.00;80.10;;;;;;6210910;23;20107;-73
2023/09/20 16:11:24;;;;;;;9.13;2.17;;;24.90;80.70;;;;;;6210237;23;20091;-73
2023/09/20 16:14:11;;;;;;;5.45;2.35;;;24.90;80.40;;;;;;6210622;23;20009;-73
2023/09/20 16:16:59;;;;;;;4.13;1.80;;;24.90;80.70;;;;;;6209677;23;20015;-73
2023/09/20 16:19:45;;;;;;;4.78;2.28;;;24.80;80.50;;;;;;6210167;23;20005;-74
2023/09/20 16:22:31;;;;;;;5.30;2.05;;;24.80;80.70;;;;;;6209331;23;20024;-74
2023/09/20 16:25:17;;;;;;;4.38;2.25;;;24.70;80.60;;;;;;6210150;23;20004;-74
2023/09/20 16:28:03;;;;;;;5.93;1.90;;;24.70;80.80;;;;;;6210480;23;20043;-74
2023/09/20 16:30:53;;;;;;;5.45;3.00;;;24.70;80.90;;;;;;6211399;23;20016;-74
2023/09/20 16:33:40;;;;;;;7.00;2.20;;;24.60;80.80;;;;;;6211162;23;20017;-74
2023/09/20 16:36:26;;;;;;;5.93;2.50;;;24.50;80.80;;;;;;6210671;23;20019;-74
2023/09/20 16:39:12;;;;;;;4.07;2.33;;;24.50;80.90;;;;;;6211672;23;20107;-74
2023/09/20 16:42:00;;;;;;;5.22;2.40;;;24.50;81.10;;;;;;6209956;23;20051;-74
2023/09/20 16:44:48;;;;;;;5.80;2.38;;;24.40;81.20;;;;;;6213045;23;20374;-74
2023/09/20 16:47:34;;;;;;;6.15;2.45;;;24.40;81.40;;;;;;6212422;23;20016;-74
2023/09/20 16:50:21;;;;;;;6.40;2.03;;;24.30;81.50;;;;;;6213855;23;20009;-74
2023/09/20 16:53:10;;;;;;;4.45;2.47;;;24.30;81.60;;;;;;6212441;23;20016;-73
2023/09/20 16:55:56;;;;;;;6.50;2.08;;;24.20;82.20;;;;;;6211756;23;20469;-74
2023/09/20 16:58:43;;;;;;;4.45;2.47;;;24.20;81.90;;;;;;6212185;23;20039;-75
2023/09/20 17:01:30;;;;;;;3.75;2.05;;;24.10;82.00;;;;;;6213103;23;20052;-74
2023/09/20 17:04:16;;;;;;;7.25;2.85;;;24.10;82.10;;;;;;6212106;23;20019;-73
2023/09/20 17:07:03;;;;;;;7.10;2.88;;;24.00;82.30;;;;;;6210922;23;20008;-73
2023/09/20 17:09:49;;;;;;;10.77;2.70;;;23.90;82.40;;;;;;6189488;23;20016;-72
2023/09/20 17:12:36;;;;;;;7.57;2.80;;;23.90;82.60;;;;;;6211839;23;20087;-73
2023/09/20 17:15:27;;;;;;;5.07;2.72;;;23.80;82.70;;;;;;6209639;23;20016;-74
2023/09/20 17:18:13;;;;;;;6.53;3.22;;;23.80;82.90;;;;;;6211441;23;20040;-74
2023/09/20 17:20:59;;;;;;;5.97;3.40;;;23.70;83.10;;;;;;6210575;23;20012;-77
2023/09/20 17:23:45;;;;;;;6.15;3.13;;;23.60;83.20;;;;;;6211553;23;20015;-70
2023/09/20 17:26:32;;;;;;;7.10;3.40;;;23.60;83.60;;;;;;6211908;23;20020;-74
2023/09/20 17:29:19;;;;;;;5.50;3.13;;;23.50;83.70;;;;;;6211515;23;20012;-65
2023/09/20 17:32:06;;;;;;;4.70;2.58;;;23.40;83.90;;;;;;6211981;23;20316;-68
2023/09/20 17:34:54;;;;;;;6.65;2.90;;;23.40;84.30;;;;;;6211686;23;20075;-72
2023/09/20 17:37:43;;;;;;;4.50;2.90;;;23.30;84.40;;;;;;6211222;22;20082;-71
2023/09/20 17:40:29;;;;;;;5.53;3.13;;;23.20;85.00;;;;;;6211723;23;20008;-73
2023/09/20 17:43:15;;;;;;;6.07;2.88;;;23.20;85.20;;;;;;6213805;23;20043;-77
2023/09/20 17:46:01;;;;;;;8.30;2.67;;;23.10;85.40;;;;;;6209777;23;20035;-76
2023/09/20 17:48:47;;;;;;;5.43;2.70;;;23.10;85.40;;;;;;6213322;23;20022;-75
2023/09/20 17:51:33;;;;;;;7.20;3.33;;;23.00;85.60;;;;;;6209985;23;20012;-75
2023/09/20 17:54:20;;;;;;;6.53;2.50;;;23.00;85.80;;;;;;6210148;23;20012;-75
2023/09/20 17:57:07;;;;;;;4.93;2.90;;;22.90;85.70;;;;;;6210252;23;20096;-75
2023/09/20 17:59:53;;;;;;;5.50;2.38;;;22.80;85.80;;;;;;6211621;23;20017;-77
2023/09/20 18:02:39;;;;;;;4.75;2.83;;;22.80;86.00;;;;;;6210892;23;20020;-77
2023/09/20 18:05:25;;;;;;;5.97;2.90;;;22.70;86.20;;;;;;6211280;23;20082;-76
2023/09/20 18:08:11;;;;;;;7.43;3.25;;;22.70;86.30;;;;;;6210569;23;20078;-75
2023/09/20 18:10:56;;;;;;;8.68;2.65;;;22.60;86.30;;;;;;6210894;23;20004;-76
2023/09/20 18:13:42;;;;;;;7.22;2.90;;;22.50;86.50;;;;;;6212409;23;20040;-76
2023/09/20 18:16:29;;;;;;;5.35;3.25;;;22.50;86.80;;;;;;6210992;23;20142;-73
2023/09/20 18:19:16;;;;;;;5.95;3.03;;;22.40;86.80;;;;;;6212655;23;20013;-77
2023/09/20 18:22:04;;;;;;;7.43;3.47;;;22.40;87.00;;;;;;6211132;23;20020;-70
2023/09/20 18:24:50;;;;;;;6.22;3.38;;;22.40;87.20;;;;;;6210616;23;20020;-72
2023/09/20 18:27:39;;;;;;;4.72;2.70;;;22.30;87.40;;;;;;6211177;23;20012;-73
2023/09/20 18:30:28;;;;;;;8.07;3.90;;;22.30;87.70;;;;;;6211053;23;20004;-73
2023/09/20 18:33:14;;;;;;;6.03;2.97;;;22.20;87.70;;;;;;6211646;23;20039;-74
2023/09/20 18:36:00;;;;;;;5.97;3.72;;;22.20;87.90;;;;;;6211609;23;20040;-73
2023/09/20 18:38:47;;;;;;;4.45;2.70;;;22.20;88.50;;;;;;6210908;23;20108;-74
2023/09/20 18:41:34;;;;;;;4.22;2.88;;;22.10;88.10;;;;;;6210203;23;20028;-73
2023/09/20 18:44:20;;;;;;;8.13;3.55;;;22.10;88.30;;;;;;6212350;23;20015;-74
2023/09/20 18:47:11;;;;;;;8.57;3.30;;;22.00;88.40;;;;;;6211753;23;20462;-74
2023/09/20 18:49:57;;;;;;;7.35;3.05;;;22.00;88.60;;;;;;6212733;23;20071;-71
2023/09/20 18:52:46;;;;;;;4.50;3.15;;;22.00;88.80;;;;;;6212196;23;20008;-72
2023/09/20 18:55:31;;;;;;;4.75;2.30;;;21.90;88.80;;;;;;6211058;23;20015;-75
2023/09/20 18:58:19;;;;;;;4.05;2.50;;;21.90;88.90;;;;;;6210610;23;20009;-72
2023/09/20 19:01:17;;;;;;;5.85;2.67;;;21.80;89.00;;;;;;6210881;23;20083;-72
2023/09/20 19:04:04;;;;;;;5.05;2.38;;;21.70;89.00;;;;;;6212602;23;20020;-68
2023/09/20 19:06:52;;;;;;;6.90;3.10;;;21.70;89.00;;;;;;6188511;23;20328;-67
2023/09/20 19:09:38;;;;;;;5.22;2.63;;;21.60;89.00;;;;;;6211302;23;20093;-66
2023/09/20 19:12:24;;;;;;;8.32;2.78;;;21.60;89.10;;;;;;6212146;23;20667;-66
2023/09/20 19:15:15;;;;;;;6.78;2.70;;;21.60;89.10;;;;;;6209063;23;20024;-67
2023/09/20 19:18:01;;;;;;;6.30;2.65;;;21.50;89.40;;;;;;6209047;23;20438;-66
2023/09/20 19:20:48;;;;;;;5.45;2.90;;;21.50;89.40;;;;;;6210588;23;20351;-66
2023/09/20 19:23:34;;;;;;;6.88;2.78;;;21.50;89.50;;;;;;6210430;23;20474;-65
2023/09/20 19:26:20;;;;;;;7.80;3.10;;;21.40;89.50;;;;;;6209371;23;20103;-66
2023/09/20 19:29:07;;;;;;;5.40;2.47;;;21.40;89.70;;;;;;6209948;23;20435;-66
2023/09/20 19:31:53;;;;;;;6.57;3.20;;;21.40;89.80;;;;;;6209467;23;20013;-66
2023/09/20 19:34:39;;;;;;;6.75;3.15;;;21.30;89.80;;;;;;6210327;23;20038;-65
2023/09/20 19:37:32;;;;;;;6.22;3.22;;;21.30;89.90;;;;;;6208962;23;20032;-66
2023/09/20 19:40:23;;;;;;;5.60;2.92;;;21.30;90.00;;;;;;6209753;23;20020;-66
2023/09/20 19:43:09;;;;;;;6.00;2.70;;;21.30;90.00;;;;;;6210319;23;20044;-66
2023/09/20 19:45:55;;;;;;;4.63;2.60;;;21.20;90.10;;;;;;6210201;23;20001;-65
2023/09/20 19:48:47;;;;;;;5.07;2.40;;;21.20;90.10;;;;;;6209245;23;20845;-65
2023/09/20 19:51:33;;;;;;;5.07;2.25;;;21.20;90.10;;;;;;6209821;23;20079;-66
2023/09/20 19:54:20;;;;;;;3.60;2.22;;;21.10;90.20;;;;;;6209754;23;20048;-66
2023/09/20 19:57:06;;;;;;;5.68;2.83;;;21.10;90.20;;;;;;6210186;23;20008;-65
2023/09/20 19:59:51;;;;;;;5.82;2.38;;;21.00;90.20;;;;;;6209543;23;20017;-66
2023/09/20 20:02:39;;;;;;;5.60;2.05;;;21.00;90.10;;;;;;6209170;23;20055;-63
2023/09/20 20:05:26;;;;;;;4.22;1.77;;;21.00;90.20;;;;;;6210650;23;20315;-66
2023/09/20 20:08:13;;;;;;;4.15;2.30;;;20.90;90.30;;;;;;6209588;23;20016;-67
2023/09/20 20:10:59;;;;;;;4.35;2.50;;;20.90;90.10;;;;;;6208622;23;20005;-67
2023/09/20 20:13:46;;;;;;;4.20;2.40;;;20.80;90.10;;;;;;6210077;23;20394;-67
2023/09/20 20:16:37;;;;;;;4.90;2.38;;;20.80;90.10;;;;;;6210376;23;20001;-67
2023/09/20 20:19:23;;;;;;;6.05;2.85;;;20.80;90.10;;;;;;6209387;23;20019;-67
2023/09/20 20:22:09;;;;;;;6.20;2.67;;;20.80;90.10;;;;;;6209775;23;20108;-67
2023/09/20 20:24:56;;;;;;;3.80;1.90;;;20.70;90.10;;;;;;6211683;23;20005;-67
2023/09/20 20:27:42;;;;;;;3.70;2.47;;;20.70;90.10;;;;;;6209081;23;20042;-66
2023/09/20 20:30:30;;;;;;;5.07;2.75;;;20.70;90.20;;;;;;6209649;23;20009;-66
2023/09/20 20:33:16;;;;;;;4.05;2.42;;;20.60;90.20;;;;;;6210670;23;20084;-68
2023/09/20 20:36:03;;;;;;;4.93;2.70;;;20.70;90.30;;;;;;6209660;23;20051;-67
2023/09/20 20:38:53;;;;;;;4.28;2.38;;;20.60;90.30;;;;;;6208164;23;20033;-66
2023/09/20 20:41:40;;;;;;;5.55;2.72;;;20.60;90.20;;;;;;6208224;23;20099;-66
2023/09/20 20:44:26;;;;;;;6.20;2.80;;;20.60;90.30;;;;;;6210010;23;20031;-66
2023/09/20 20:47:12;;;;;;;7.75;2.65;;;20.50;90.30;;;;;;6210109;23;20021;-67
2023/09/20 20:49:58;;;;;;;4.55;2.65;;;20.50;90.40;;;;;;6210784;23;20020;-66
2023/09/20 20:52:47;;;;;;;5.00;3.05;;;20.50;90.50;;;;;;6210175;23;20008;-67
2023/09/20 20:55:32;;;;;;;5.05;2.60;;;20.50;90.60;;;;;;6209296;23;20019;-67
2023/09/20 20:58:18;;;;;;;3.30;2.00;;;20.40;90.60;;;;;;6208484;23;20012;-67
2023/09/20 21:01:06;;;;;;;4.88;2.72;;;20.40;90.80;;;;;;6209454;23;20016;-67
2023/09/20 21:03:57;;;;;;;4.85;2.55;;;20.40;90.90;;;;;;6211317;23;20027;-67
2023/09/20 21:06:44;;;;;;;5.07;2.50;;;20.40;91.00;;;;;;6209479;23;20051;-66
2023/09/20 21:09:30;;;;;;;4.90;2.67;;;20.30;90.90;;;;;;6207171;23;20012;-67
2023/09/20 21:12:18;;;;;;;5.40;3.17;;;20.30;90.90;;;;;;6209642;23;20111;-67
2023/09/20 21:15:06;;;;;;;4.55;2.75;;;20.30;90.90;;;;;;6207658;23;20057;-66
2023/09/20 21:17:55;;;;;;;4.93;2.72;;;20.20;91.00;;;;;;6210190;23;20343;-66
2023/09/20 21:20:41;;;;;;;7.22;3.65;;;20.20;91.10;;;;;;6208689;23;20360;-66
2023/09/20 21:23:27;;;;;;;6.15;3.35;;;20.10;91.20;;;;;;6209513;23;20021;-66
2023/09/20 21:26:13;;;;;;;5.22;3.17;;;20.10;91.20;;;;;;6209401;23;20058;-66
2023/09/20 21:28:59;;;;;;;6.30;2.70;;;20.10;91.30;;;;;;6209530;23;20012;-65
2023/09/20 21:31:45;;;;;;;5.63;3.08;;;20.10;91.30;;;;;;6209917;23;20018;-66
2023/09/20 21:34:32;;;;;;;8.55;3.13;;;20.00;91.30;;;;;;6212533;23;20019;-65
2023/09/20 21:37:18;;;;;;;5.53;2.92;;;20.00;91.40;;;;;;6210820;23;20005;-67
2023/09/20 21:40:05;;;;;;;5.22;2.53;;;20.00;91.40;;;;;;6211824;23;20095;-68
2023/09/20 21:42:52;;;;;;;6.18;2.90;;;19.90;91.40;;;;;;6212061;23;20020;-67
2023/09/20 21:45:38;;;;;;;4.75;2.50;;;19.90;91.50;;;;;;6210765;23;20092;-66
2023/09/20 21:48:24;;;;;;;7.47;2.67;;;19.90;91.50;;;;;;6210781;23;20017;-66
2023/09/20 21:51:09;;;;;;;6.40;3.40;;;19.90;91.60;;;;;;6210810;23;20398;-67
2023/09/20 21:53:55;;;;;;;3.58;2.17;;;19.80;91.60;;;;;;6209337;23;20354;-67
2023/09/20 21:56:41;;;;;;;6.82;2.67;;;19.80;91.60;;;;;;6211294;23;20823;-67
2023/09/20 21:59:27;;;;;;;4.72;2.90;;;19.70;91.60;;;;;;6211154;23;20096;-67
2023/09/20 22:02:14;;;;;;;6.55;3.20;;;19.70;91.70;;;;;;6210525;23;20111;-67
2023/09/20 22:05:00;;;;;;;4.75;2.70;;;19.70;91.70;;;;;;6209971;23;20090;-67
2023/09/20 22:07:47;;;;;;;6.80;2.78;;;19.60;91.80;;;;;;6212852;23;20391;-67
2023/09/20 22:10:49;;;;;;;8.23;2.60;;;19.60;91.80;;;;;;6211069;23;20009;-69
2023/09/20 22:13:37;;;;;;;8.07;3.42;;;19.60;91.90;;;;;;6212258;23;20012;-68
2023/09/20 22:16:23;;;;;;;5.05;3.33;;;19.50;91.90;;;;;;6210734;23;20009;-67
2023/09/20 22:19:09;;;;;;;5.88;3.20;;;19.60;92.10;;;;;;6210781;23;20043;-67
2023/09/20 22:21:59;;;;;;;5.03;3.28;;;19.50;92.10;;;;;;6210969;23;20394;-66
2023/09/20 22:24:46;;;;;;;5.18;3.15;;;19.40;92.20;;;;;;6211175;23;20016;-65
2023/09/20 22:27:32;;;;;;;5.47;3.35;;;19.40;92.30;;;;;;6211572;23;20096;-65
2023/09/20 22:30:18;;;;;;;9.65;2.70;;;19.40;92.30;;;;;;6213666;23;20438;-65
2023/09/20 22:33:07;;;;;;;6.55;3.30;;;19.30;92.40;;;;;;6189508;23;20009;-65
2023/09/20 22:35:53;;;;;;;5.25;3.13;;;19.30;92.60;;;;;;6209913;23;20438;-65
2023/09/20 22:38:41;;;;;;;5.38;2.80;;;19.30;92.60;;;;;;6210300;23;20466;-65
2023/09/20 22:41:26;;;;;;;5.18;3.00;;;19.30;92.70;;;;;;6210799;23;20347;-65
2023/09/20 22:44:15;;;;;;;4.50;2.75;;;19.30;92.90;;;;;;6211363;23;20084;-66
2023/09/20 22:47:01;;;;;;;4.90;2.97;;;19.20;92.70;;;;;;6207881;23;20016;-65
2023/09/20 22:49:50;;;;;;;4.93;2.22;;;19.20;92.90;;;;;;6212087;23;20009;-65
2023/09/20 22:52:37;;;;;;;4.93;2.50;;;19.20;92.90;;;;;;6208080;23;20346;-65
2023/09/20 22:55:26;;;;;;;4.25;2.67;;;19.20;93.00;;;;;;6210349;23;20405;-66
2023/09/20 22:58:14;;;;;;;4.82;2.45;;;19.20;93.00;;;;;;6210175;23;20017;-65
2023/09/20 23:01:05;;;;;;;3.80;2.22;;;19.10;93.10;;;;;;6209708;23;20013;-65
2023/09/20 23:03:51;;;;;;;5.22;2.70;;;19.10;93.20;;;;;;6209563;23;20023;-66
2023/09/20 23:06:37;;;;;;;3.72;2.42;;;19.10;93.20;;;;;;6210491;23;20009;-65
2023/09/20 23:09:23;;;;;;;4.78;3.28;;;19.10;93.20;;;;;;6212541;23;20020;-65